createdAt,value
2022-09-07T00:02:01.870Z,98.68
2022-09-07T00:04:28.579Z,95.20
2022-09-07T00:06:55.345Z,95.57
2022-09-07T00:09:22.017Z,95.00
2022-09-07T00:11:48.700Z,94.55
2022-09-07T00:14:15.380Z,96.55
2022-09-07T00:16:42.226Z,95.43
2022-09-07T00:19:08.960Z,95.40
2022-09-07T00:21:36.410Z,96.68
2022-09-07T00:24:03.348Z,96.05
2022-09-07T00:26:31.578Z,95.13
2022-09-07T00:29:00.448Z,96.78
2022-09-07T00:31:28.716Z,97.95
2022-09-07T00:33:58.904Z,96.32
2022-09-07T00:36:25.577Z,99.35
2022-09-07T00:38:52.231Z,96.22
2022-09-07T00:41:20.608Z,97.10
2022-09-07T00:43:56.527Z,94.50
2022-09-07T00:46:27.727Z,93.43
2022-09-07T00:49:11.871Z,98.50
2022-09-07T00:51:47.646Z,94.07
2022-09-07T00:54:21.455Z,94.57
2022-09-07T00:56:49.891Z,93.20
2022-09-07T00:59:20.148Z,95.15
2022-09-07T01:01:46.887Z,94.72
2022-09-07T01:04:14.817Z,96.78
2022-09-07T01:06:43.325Z,100.30
2022-09-07T01:09:12.597Z,104.95
2022-09-07T01:11:40.072Z,99.22
2022-09-07T01:14:09.415Z,101.20
2022-09-07T01:16:41.890Z,98.32
2022-09-07T01:19:26.761Z,95.82
2022-09-07T01:22:22.873Z,98.45
2022-09-07T01:25:13.237Z,94.50
2022-09-07T01:27:49.162Z,95.72
2022-09-07T01:30:19.407Z,97.22
2022-09-07T01:33:10.388Z,94.72
2022-09-07T01:35:45.129Z,92.55
2022-09-07T01:38:21.681Z,95.20
2022-09-07T01:41:09.644Z,94.32
2022-09-07T01:43:48.306Z,94.75
2022-09-07T01:46:28.214Z,97.38
2022-09-07T01:49:03.695Z,100.55
2022-09-07T01:51:34.578Z,92.80
2022-09-07T01:54:22.909Z,93.95
2022-09-07T01:56:53.162Z,96.65
2022-09-07T01:59:43.915Z,98.25
2022-09-07T02:02:19.482Z,101.55
2022-09-07T02:04:54.150Z,97.95
2022-09-07T02:07:50.983Z,95.43
2022-09-07T02:10:25.634Z,97.88
2022-09-07T02:12:59.858Z,99.88
2022-09-07T02:15:42.858Z,100.30
2022-09-07T02:18:13.686Z,103.28
2022-09-07T02:20:44.907Z,102.88
2022-09-07T02:23:34.921Z,98.25
2022-09-07T02:26:06.926Z,100.18
2022-09-07T02:28:36.518Z,97.13
2022-09-07T02:31:06.601Z,98.10
2022-09-07T02:33:33.726Z,101.70
2022-09-07T02:36:01.669Z,102.13
2022-09-07T02:38:28.475Z,97.13
2022-09-07T02:40:58.033Z,99.17
2022-09-07T02:43:25.823Z,96.43
2022-09-07T02:46:11.295Z,100.63
2022-09-07T02:48:40.951Z,106.78
2022-09-07T02:51:14.757Z,108.78
2022-09-07T02:53:41.396Z,102.63
2022-09-07T02:56:26.538Z,98.93
2022-09-07T02:59:48.263Z,98.80
2022-09-07T03:02:43.165Z,97.18
2022-09-07T03:05:31.976Z,98.63
2022-09-07T03:08:11.254Z,99.20
2022-09-07T03:10:40.361Z,100.72
2022-09-07T03:13:07.069Z,104.88
2022-09-07T03:15:33.934Z,94.97
2022-09-07T03:18:00.651Z,96.57
2022-09-07T03:20:27.353Z,98.78
2022-09-07T03:22:54.026Z,96.78
2022-09-07T03:25:20.741Z,101.82
2022-09-07T03:27:47.611Z,98.60
2022-09-07T03:30:14.552Z,97.50
2022-09-07T03:32:41.232Z,101.78
2022-09-07T03:35:08.514Z,99.80
2022-09-07T03:37:38.911Z,100.18
2022-09-07T03:40:09.098Z,99.15
2022-09-07T03:42:36.690Z,101.80
2022-09-07T03:45:04.672Z,96.43
2022-09-07T03:47:31.355Z,96.28
2022-09-07T03:49:58.017Z,98.22
2022-09-07T03:52:24.656Z,96.18
2022-09-07T03:54:51.318Z,95.45
2022-09-07T03:57:20.207Z,96.38
2022-09-07T03:59:47.213Z,104.00
2022-09-07T04:02:14.230Z,96.68
2022-09-07T04:04:42.615Z,99.70
2022-09-07T04:07:09.824Z,96.20
2022-09-07T04:09:36.493Z,95.38
2022-09-07T04:12:03.522Z,98.50
2022-09-07T04:14:30.182Z,96.93
2022-09-07T04:16:56.914Z,104.00
2022-09-07T04:19:23.860Z,99.15
2022-09-07T04:21:50.610Z,98.07
2022-09-07T04:24:18.352Z,97.88
2022-09-07T04:26:45.410Z,98.75
2022-09-07T04:29:13.073Z,103.53
2022-09-07T04:31:39.989Z,97.75
2022-09-07T04:34:07.259Z,97.10
2022-09-07T04:36:34.862Z,98.78
2022-09-07T04:39:04.818Z,99.20
2022-09-07T04:41:33.178Z,97.25
2022-09-07T04:44:01.956Z,99.07
2022-09-07T04:46:33.824Z,99.47
2022-09-07T04:49:06.296Z,106.80
2022-09-07T04:51:33.766Z,101.50
2022-09-07T04:54:02.335Z,106.18
2022-09-07T04:56:29.874Z,103.95
2022-09-07T04:58:56.817Z,101.25
2022-09-07T05:01:26.133Z,99.28
2022-09-07T05:03:53.157Z,103.53
2022-09-07T05:06:22.502Z,99.97
2022-09-07T05:08:51.995Z,99.28
2022-09-07T05:11:23.917Z,100.32
2022-09-07T05:13:56.903Z,98.13
2022-09-07T05:16:26.277Z,98.70
2022-09-07T05:18:55.828Z,100.60
2022-09-07T05:21:25.369Z,98.40
2022-09-07T05:23:54.373Z,99.05
2022-09-07T05:26:23.172Z,100.63
2022-09-07T05:28:50.392Z,98.57
2022-09-07T05:31:19.559Z,100.25
2022-09-07T05:36:46.436Z,98.22
2022-09-07T05:39:13.106Z,101.70
2022-09-07T05:41:39.855Z,106.25
2022-09-07T05:46:53.570Z,103.32
2022-09-07T05:49:20.243Z,98.78
2022-09-07T05:51:48.250Z,98.25
2022-09-07T05:54:14.941Z,106.00
2022-09-07T05:56:41.594Z,99.03
2022-09-07T05:59:08.344Z,100.65
2022-09-07T06:01:35.868Z,99.95
2022-09-07T06:04:02.973Z,107.68
2022-09-07T06:06:29.883Z,99.28
2022-09-07T06:08:57.672Z,101.15
2022-09-07T06:11:26.203Z,100.90
2022-09-07T06:13:53.126Z,100.93
2022-09-07T06:16:20.648Z,100.30
2022-09-07T06:18:49.499Z,102.22
2022-09-07T06:21:19.242Z,103.93
2022-09-07T06:23:47.304Z,100.78
2022-09-07T06:26:15.193Z,99.57
2022-09-07T06:28:49.613Z,101.65
2022-09-07T06:31:19.550Z,102.03
2022-09-07T06:33:50.460Z,99.07
2022-09-07T06:36:19.800Z,97.32
2022-09-07T06:38:47.683Z,99.53
2022-09-07T06:44:07.274Z,103.28
2022-09-07T06:49:20.619Z,99.20
2022-09-07T06:51:47.503Z,100.53
2022-09-07T06:57:07.913Z,95.78
2022-09-07T06:59:35.229Z,94.78
2022-09-07T07:02:02.179Z,97.27
2022-09-07T07:04:28.856Z,99.32
2022-09-07T07:06:55.531Z,93.80
2022-09-07T07:09:22.253Z,92.63
2022-09-07T07:11:49.078Z,93.03
2022-09-07T07:14:16.682Z,89.70
2022-09-07T07:16:43.768Z,88.00
2022-09-07T07:19:10.531Z,92.10
2022-09-07T07:22:01.994Z,89.10
2022-09-07T07:24:23.852Z,88.93
2022-09-07T07:26:50.617Z,91.47
2022-09-07T07:29:18.906Z,90.60
2022-09-07T07:31:47.145Z,91.77
2022-09-07T07:34:15.122Z,87.57
2022-09-07T07:36:41.908Z,85.87
2022-09-07T07:41:58.721Z,85.97
2022-09-07T07:44:28.373Z,83.07
2022-09-07T07:46:55.065Z,85.47
2022-09-07T07:49:21.871Z,84.33
2022-09-07T07:54:37.913Z,88.70
2022-09-07T07:57:05.771Z,87.03
2022-09-07T07:59:32.572Z,83.30
2022-09-07T08:02:04.419Z,85.23
2022-09-07T08:04:35.808Z,82.07
2022-09-07T08:07:08.710Z,81.20
2022-09-07T08:09:37.243Z,84.53
2022-09-07T08:12:04.036Z,82.97
2022-09-07T08:14:30.683Z,90.60
2022-09-07T08:16:57.291Z,80.90
2022-09-07T08:19:23.923Z,78.30
2022-09-07T08:21:50.526Z,79.80
2022-09-07T08:24:17.142Z,77.57
2022-09-07T08:26:43.796Z,81.97
2022-09-07T08:29:10.407Z,78.23
2022-09-07T08:31:37.559Z,80.07
2022-09-07T08:34:04.265Z,79.93
2022-09-07T08:36:31.888Z,76.80
2022-09-07T08:38:58.542Z,79.37
2022-09-07T08:41:55.315Z,79.97
2022-09-07T08:44:31.776Z,79.03
2022-09-07T08:47:29.320Z,82.77
2022-09-07T08:50:11.836Z,77.17
2022-09-07T08:52:48.088Z,79.40
2022-09-07T08:55:46.721Z,78.37
2022-09-07T08:58:45.280Z,77.57
2022-09-07T09:04:16.645Z,81.20
2022-09-07T09:07:02.643Z,80.87
2022-09-07T09:09:45.377Z,81.00
2022-09-07T09:12:37.698Z,80.97
2022-09-07T09:15:17.560Z,81.67
2022-09-07T09:17:59.606Z,81.37
2022-09-07T09:20:46.172Z,81.20
2022-09-07T09:23:16.329Z,82.00
2022-09-07T09:25:56.372Z,83.13
2022-09-07T09:28:25.503Z,81.90
2022-09-07T09:30:54.659Z,83.07
2022-09-07T09:33:25.814Z,83.27
2022-09-07T09:35:54.882Z,85.90
2022-09-07T09:38:33.901Z,85.20
2022-09-07T09:41:14.864Z,83.53
2022-09-07T09:43:54.687Z,84.20
2022-09-07T09:46:28.473Z,82.33
2022-09-07T09:48:59.196Z,83.20
2022-09-07T09:54:36.289Z,82.00
2022-09-07T09:57:03.776Z,83.70
2022-09-07T10:05:35.902Z,81.67
2022-09-07T10:08:06.265Z,84.30
2022-09-07T10:10:32.923Z,81.30
2022-09-07T10:12:59.815Z,84.40
2022-09-07T10:15:40.139Z,84.60
2022-09-07T10:18:15.598Z,83.50
2022-09-07T10:20:42.231Z,83.67
2022-09-07T10:23:21.037Z,81.10
2022-09-07T10:25:47.714Z,80.47
2022-09-07T10:28:23.902Z,80.07
2022-09-07T10:31:02.905Z,81.57
2022-09-07T10:36:57.138Z,82.73
2022-09-07T10:39:27.926Z,81.13
2022-09-07T10:42:09.903Z,83.30
2022-09-07T10:44:45.447Z,79.67
2022-09-07T10:47:30.576Z,82.17
2022-09-07T10:53:39.014Z,83.80
2022-09-07T10:56:09.568Z,81.10
2022-09-07T10:59:03.918Z,79.47
2022-09-07T11:01:49.788Z,79.20
2022-09-07T11:04:31.664Z,80.13
2022-09-07T11:07:17.114Z,79.00
2022-09-07T11:09:58.735Z,81.80
2022-09-07T11:12:32.120Z,80.60
2022-09-07T11:15:29.563Z,79.50
2022-09-07T11:18:03.223Z,84.60
2022-09-07T11:20:44.948Z,79.47
2022-09-07T11:23:17.217Z,79.40
2022-09-07T11:26:07.425Z,79.50
2022-09-07T11:31:44.832Z,79.67
2022-09-07T11:34:33.201Z,82.80
2022-09-07T11:37:18.711Z,83.20
2022-09-07T11:39:52.614Z,80.70
2022-09-07T11:42:43.491Z,83.10
2022-09-07T11:45:28.254Z,84.37
2022-09-07T11:48:30.358Z,82.77
2022-09-07T11:51:03.373Z,85.63
2022-09-07T11:53:35.717Z,83.37
2022-09-07T11:56:20.418Z,82.83
2022-09-07T11:59:08.180Z,84.90
2022-09-07T12:01:48.773Z,81.93
2022-09-07T12:04:29.363Z,83.27
2022-09-07T12:07:17.654Z,83.70
2022-09-07T12:10:06.430Z,82.07
2022-09-07T12:13:15.330Z,85.03
2022-09-07T12:15:52.459Z,84.20
2022-09-07T12:18:54.091Z,82.00
2022-09-07T12:21:40.445Z,83.27
2022-09-07T12:24:33.366Z,82.40
2022-09-07T12:27:10.913Z,81.77
2022-09-07T12:29:38.299Z,80.77
2022-09-07T12:32:53.468Z,84.23
2022-09-07T12:34:55.860Z,82.00
2022-09-07T12:37:35.995Z,79.90
2022-09-07T12:40:30.599Z,79.93
2022-09-07T12:43:12.557Z,79.90
2022-09-07T12:45:39.211Z,80.33
2022-09-07T12:48:14.539Z,83.10
2022-09-07T12:50:42.446Z,80.50
2022-09-07T12:53:26.439Z,79.07
2022-09-07T12:56:16.023Z,79.80
2022-09-07T12:59:16.043Z,80.07
2022-09-07T13:02:16.287Z,80.87
2022-09-07T13:04:49.956Z,79.83
2022-09-07T13:07:32.974Z,80.33
2022-09-07T13:10:36.324Z,80.87
2022-09-07T13:16:14.592Z,79.70
2022-09-07T13:18:43.662Z,80.90
2022-09-07T13:21:11.812Z,80.30
2022-09-07T13:23:43.240Z,81.43
2022-09-07T13:26:13.517Z,80.37
2022-09-07T13:28:58.317Z,81.80
2022-09-07T13:31:37.104Z,81.47
2022-09-07T13:34:29.540Z,80.63
2022-09-07T13:36:57.062Z,81.10
2022-09-07T13:39:24.240Z,81.07
2022-09-07T13:41:54.291Z,81.13
2022-09-07T13:44:29.713Z,82.20
2022-09-07T13:47:05.003Z,81.40
2022-09-07T13:49:46.992Z,81.07
2022-09-07T13:52:23.614Z,81.20
2022-09-07T13:55:08.444Z,81.67
2022-09-07T13:58:04.633Z,80.57
2022-09-07T14:00:31.502Z,82.30
2022-09-07T14:03:06.438Z,81.57
2022-09-07T14:05:33.464Z,79.77
2022-09-07T14:08:00.119Z,82.67
2022-09-07T14:10:26.819Z,81.30
2022-09-07T14:13:11.821Z,81.57
2022-09-07T14:15:47.191Z,79.47
2022-09-07T14:18:25.729Z,85.10
2022-09-07T14:20:53.444Z,80.43
2022-09-07T14:23:29.896Z,84.73
2022-09-07T14:26:17.959Z,82.50
2022-09-07T14:28:47.237Z,79.93
2022-09-07T14:31:16.788Z,79.90
2022-09-07T14:34:03.819Z,80.87
2022-09-07T14:36:45.864Z,80.50
2022-09-07T14:39:15.874Z,80.53
2022-09-07T14:41:43.361Z,80.20
2022-09-07T14:44:30.666Z,80.40
2022-09-07T14:47:00.487Z,80.87
2022-09-07T14:49:28.738Z,80.87
2022-09-07T14:51:55.845Z,81.97
2022-09-07T14:54:34.169Z,81.10
2022-09-07T14:57:05.258Z,83.30
2022-09-07T14:59:41.528Z,81.60
2022-09-07T15:02:22.052Z,81.00
2022-09-07T15:05:10.475Z,82.67
2022-09-07T15:07:52.349Z,81.60
2022-09-07T15:10:23.112Z,82.10
2022-09-07T15:12:55.278Z,81.57
2022-09-07T15:15:37.408Z,83.87
2022-09-07T15:18:25.703Z,82.60
2022-09-07T15:20:52.990Z,83.87
2022-09-07T15:23:20.145Z,90.13
2022-09-07T15:25:53.468Z,83.30
2022-09-07T15:34:11.276Z,83.27
2022-09-07T15:36:40.802Z,81.50
2022-09-07T15:39:14.177Z,84.07
2022-09-07T15:41:40.760Z,84.27
2022-09-07T15:44:09.035Z,83.80
2022-09-07T15:46:37.128Z,84.00
2022-09-07T15:49:03.986Z,81.67
2022-09-07T15:54:17.415Z,82.30
2022-09-07T15:57:48.037Z,84.60
2022-09-07T15:59:31.135Z,82.53
2022-09-07T16:01:58.631Z,83.00
2022-09-07T16:04:25.589Z,85.50
2022-09-07T16:06:52.310Z,83.20
2022-09-07T16:09:21.854Z,84.40
2022-09-07T16:11:51.220Z,81.77
2022-09-07T16:14:18.160Z,82.90
2022-09-07T16:19:34.973Z,82.50
2022-09-07T16:22:03.114Z,82.90
2022-09-07T16:24:29.876Z,83.73
2022-09-07T16:26:56.660Z,85.13
2022-09-07T16:29:23.383Z,85.90
2022-09-07T16:34:36.861Z,85.43
2022-09-07T16:37:03.836Z,83.60
2022-09-07T16:39:30.766Z,82.57
2022-09-07T16:42:00.057Z,86.27
2022-09-07T16:44:26.848Z,83.50
2022-09-07T16:46:53.546Z,83.70
2022-09-07T16:49:20.317Z,85.37
2022-09-07T16:51:47.047Z,84.17
2022-09-07T16:54:15.705Z,85.87
2022-09-07T16:56:42.320Z,85.60
2022-09-07T16:59:15.884Z,84.60
2022-09-07T17:01:42.683Z,88.20
2022-09-07T17:04:11.314Z,86.30
2022-09-07T17:06:39.441Z,84.30
2022-09-07T17:09:06.589Z,88.30
2022-09-07T17:11:35.276Z,85.80
2022-09-07T17:14:05.153Z,86.47
2022-09-07T17:16:34.086Z,85.00
2022-09-07T17:21:53.749Z,85.60
2022-09-07T17:24:20.872Z,85.53
2022-09-07T17:26:47.798Z,85.47
2022-09-07T17:29:14.756Z,85.20
2022-09-07T17:34:29.765Z,86.30
2022-09-07T17:36:56.502Z,84.50
2022-09-07T17:39:23.494Z,86.13
2022-09-07T17:41:54.351Z,85.43
2022-09-07T17:44:23.194Z,85.70
2022-09-07T17:46:50.125Z,89.63
2022-09-07T17:49:17.662Z,87.20
2022-09-07T17:51:45.301Z,86.63
2022-09-07T17:54:14.918Z,86.47
2022-09-07T17:56:42.162Z,87.17
2022-09-07T18:01:56.521Z,86.13
2022-09-07T18:04:23.934Z,88.20
2022-09-07T18:06:51.221Z,86.60
2022-09-07T18:09:19.549Z,88.27
2022-09-07T18:11:48.095Z,90.10
2022-09-07T18:14:15.548Z,90.50
2022-09-07T18:16:43.455Z,89.87
2022-09-07T18:19:11.190Z,91.80
2022-09-07T18:21:39.355Z,87.30
2022-09-07T18:24:13.583Z,90.17
2022-09-07T18:26:41.032Z,87.27
2022-09-07T18:29:19.252Z,87.13
2022-09-07T18:31:54.596Z,90.47
2022-09-07T18:34:21.239Z,87.70
2022-09-07T18:36:48.051Z,87.63
2022-09-07T18:39:15.062Z,87.07
2022-09-07T18:41:42.167Z,87.60
2022-09-07T18:46:55.975Z,92.30
2022-09-07T18:49:22.684Z,87.20
2022-09-07T18:54:35.978Z,87.87
2022-09-07T18:57:02.608Z,92.00
2022-09-07T18:59:29.743Z,88.63
2022-09-07T19:02:01.545Z,88.43
2022-09-07T19:05:49.795Z,90.07
2022-09-07T19:07:17.531Z,88.10
2022-09-07T19:09:44.186Z,88.83
2022-09-07T19:12:10.836Z,87.40
2022-09-07T19:14:37.620Z,90.10
2022-09-07T19:17:04.324Z,88.07
2022-09-07T19:19:30.986Z,88.50
2022-09-07T19:21:58.230Z,88.80
2022-09-07T19:24:25.720Z,88.97
2022-09-07T19:26:55.720Z,87.57
2022-09-07T19:29:25.163Z,90.33
2022-09-07T19:32:06.590Z,89.60
2022-09-07T19:34:41.897Z,88.13
2022-09-07T19:37:11.286Z,88.60
2022-09-07T19:39:38.312Z,88.17
2022-09-07T19:42:06.424Z,96.80
2022-09-07T19:44:33.399Z,89.80
2022-09-07T19:47:00.811Z,90.30
2022-09-07T19:49:28.129Z,96.23
2022-09-07T19:51:54.934Z,92.40
2022-09-07T19:54:21.745Z,90.00
2022-09-07T19:56:48.426Z,89.90
2022-09-07T19:59:15.200Z,89.40
2022-09-07T20:01:46.052Z,90.30
2022-09-07T20:04:20.411Z,88.67
2022-09-07T20:06:49.985Z,90.07
2022-09-07T20:09:18.625Z,90.23
2022-09-07T20:11:47.383Z,88.87
2022-09-07T20:14:15.984Z,90.65
2022-09-07T20:16:42.981Z,88.70
2022-09-07T20:19:12.149Z,89.90
2022-09-07T20:21:38.843Z,89.85
2022-09-07T20:24:05.813Z,89.20
2022-09-07T20:26:32.751Z,91.75
2022-09-07T20:29:23.369Z,90.07
2022-09-07T20:31:46.715Z,89.78
2022-09-07T20:34:13.940Z,90.63
2022-09-07T20:36:40.709Z,92.97
2022-09-07T20:39:07.478Z,90.43
2022-09-07T20:41:34.518Z,90.50
2022-09-07T20:44:02.684Z,91.43
2022-09-07T20:46:30.327Z,90.00
2022-09-07T20:48:57.614Z,92.00
2022-09-07T20:51:24.393Z,91.37
2022-09-07T20:53:51.480Z,89.85
2022-09-07T20:56:27.352Z,91.03
2022-09-07T20:58:56.139Z,93.18
2022-09-07T21:01:23.133Z,93.90
2022-09-07T21:03:52.486Z,96.28
2022-09-07T21:06:20.577Z,93.35
2022-09-07T21:08:48.337Z,89.47
2022-09-07T21:11:26.852Z,93.40
2022-09-07T21:14:12.231Z,89.93
2022-09-07T21:16:40.350Z,90.55
2022-09-07T21:19:09.043Z,94.00
2022-09-07T21:21:41.761Z,90.82
2022-09-07T21:24:20.641Z,90.75
2022-09-07T21:26:48.621Z,95.28
2022-09-07T21:29:18.541Z,90.88
2022-09-07T21:31:45.611Z,91.32
2022-09-07T21:34:12.653Z,91.53
2022-09-07T21:36:39.457Z,91.43
2022-09-07T21:39:07.652Z,96.78
2022-09-07T21:41:36.139Z,92.18
2022-09-07T21:44:04.026Z,93.45
2022-09-07T21:46:32.688Z,91.88
2022-09-07T21:49:00.113Z,99.10
2022-09-07T21:51:27.604Z,93.13
2022-09-07T21:53:56.289Z,91.93
2022-09-07T21:56:23.823Z,94.93
2022-09-07T21:58:55.315Z,99.78
2022-09-07T22:01:22.823Z,92.53
2022-09-07T22:03:55.105Z,91.07
2022-09-07T22:06:21.787Z,91.28
2022-09-07T22:08:48.806Z,95.35
2022-09-07T22:11:18.669Z,93.18
2022-09-07T22:13:45.770Z,91.68
2022-09-07T22:16:13.771Z,94.32
2022-09-07T22:18:44.409Z,93.85
2022-09-07T22:21:17.113Z,92.38
2022-09-07T22:23:46.965Z,93.88
2022-09-07T22:26:15.774Z,91.53
2022-09-07T22:28:43.282Z,95.72
2022-09-07T22:31:13.130Z,92.70
2022-09-07T22:33:40.993Z,94.70
2022-09-07T22:36:13.844Z,93.05
2022-09-07T22:38:41.620Z,94.80
2022-09-07T22:41:16.178Z,97.43
2022-09-07T22:43:44.228Z,92.30
2022-09-07T22:46:12.075Z,98.13
2022-09-07T22:48:40.237Z,94.78
2022-09-07T22:51:07.634Z,92.88
2022-09-07T22:53:36.514Z,92.15
2022-09-07T22:56:08.846Z,91.07
2022-09-07T22:58:35.635Z,91.68
2022-09-07T23:01:02.325Z,94.82
2022-09-07T23:03:29.553Z,92.15
2022-09-07T23:05:57.067Z,95.40
2022-09-07T23:08:25.934Z,97.03
2022-09-07T23:10:53.286Z,94.30
2022-09-07T23:13:20.595Z,91.88
2022-09-07T23:15:48.063Z,92.32
2022-09-07T23:18:19.859Z,95.95
2022-09-07T23:20:46.744Z,97.80
2022-09-07T23:23:13.580Z,91.57
2022-09-07T23:25:41.837Z,94.72
2022-09-07T23:28:12.184Z,94.97
2022-09-07T23:30:42.111Z,92.13
2022-09-07T23:33:08.761Z,91.88
2022-09-07T23:35:35.635Z,92.47
2022-09-07T23:38:02.311Z,94.00
2022-09-07T23:40:30.418Z,92.72
2022-09-07T23:42:57.891Z,92.20
2022-09-07T23:45:25.022Z,93.43
2022-09-07T23:47:51.686Z,93.65
2022-09-07T23:50:18.738Z,92.82
2022-09-07T23:52:45.444Z,92.40
2022-09-07T23:55:12.139Z,93.40
2022-09-07T23:57:38.874Z,97.20
